Time,TemperatureF,DewpointF,PressureIn,WindDirection,WindDirectionDegrees,WindSpeedMPH,WindSpeedGustMPH,Humidity,HourlyPrecipIn,Conditions,Clouds,dailyrainin,SoftwareType,DateUTC
2013-07-11 00:04:00,70.8,42.5,29.81,NW,326,3.0,3.0,36,0.00,,,0.00,WeatherTracker,2013-07-11 07:04:00,
2013-07-11 00:09:00,70.5,43.0,29.81,NW,326,2.0,4.0,37,0.00,,,0.00,WeatherTracker,2013-07-11 07:09:00,
2013-07-11 00:14:00,69.8,43.7,29.81,NW,326,0.0,4.0,39,0.00,,,0.00,WeatherTracker,2013-07-11 07:14:00,
2013-07-11 00:19:00,69.2,43.8,29.80,NW,318,0.0,4.0,40,0.00,,,0.00,WeatherTracker,2013-07-11 07:19:00,
2013-07-11 00:24:00,68.8,44.1,29.80,NNW,327,0.0,5.0,41,0.00,,,0.00,WeatherTracker,2013-07-11 07:24:00,
2013-07-11 00:29:00,68.4,44.4,29.80,NW,326,0.0,0.0,42,0.00,,,0.00,WeatherTracker,2013-07-11 07:29:00,
2013-07-11 00:34:00,67.6,44.3,29.80,NW,319,2.0,2.0,43,0.00,,,0.00,WeatherTracker,2013-07-11 07:34:00,
2013-07-11 00:39:00,67.4,44.7,29.80,NW,319,0.0,4.0,44,0.00,,,0.00,WeatherTracker,2013-07-11 07:39:00,
2013-07-11 00:44:00,67.4,44.1,29.80,NW,319,3.0,5.0,43,0.00,,,0.00,WeatherTracker,2013-07-11 07:44:00,
2013-07-11 00:49:00,67.3,44.6,29.80,NW,319,0.0,5.0,44,0.00,,,0.00,WeatherTracker,2013-07-11 07:49:00,
2013-07-11 00:54:00,67.3,45.8,29.79,NW,320,0.0,5.0,46,0.00,,,0.00,WeatherTracker,2013-07-11 07:54:00,
2013-07-11 00:59:00,67.2,44.5,29.79,NW,320,0.0,3.0,44,0.00,,,0.00,WeatherTracker,2013-07-11 07:59:00,
2013-07-11 01:04:00,67.3,45.2,29.79,NW,319,0.0,3.0,45,0.00,,,0.00,WeatherTracker,2013-07-11 08:04:00,
2013-07-11 01:09:00,67.5,45.4,29.79,NW,320,0.0,3.0,45,0.00,,,0.00,WeatherTracker,2013-07-11 08:09:00,
2013-07-11 01:14:00,67.3,45.2,29.78,NW,320,4.0,4.0,45,0.00,,,0.00,WeatherTracker,2013-07-11 08:14:00,
2013-07-11 01:19:00,66.9,44.9,29.78,WNW,299,3.0,4.0,45,0.00,,,0.00,WeatherTracker,2013-07-11 08:19:00,
2013-07-11 01:24:00,67.2,45.1,29.78,WNW,302,0.0,4.0,45,0.00,,,0.00,WeatherTracker,2013-07-11 08:24:00,
2013-07-11 01:29:00,67.5,44.2,29.78,WNW,302,2.0,4.0,43,0.00,,,0.00,WeatherTracker,2013-07-11 08:29:00,
2013-07-11 01:34:00,67.9,45.2,29.78,WNW,302,1.0,4.0,44,0.00,,,0.00,WeatherTracker,2013-07-11 08:34:00,
2013-07-11 01:39:00,68.1,44.1,29.78,WNW,302,0.0,3.0,42,0.00,,,0.00,WeatherTracker,2013-07-11 08:39:00,
2013-07-11 01:44:00,68.3,43.7,29.77,WNW,302,0.0,3.0,41,0.00,,,0.00,WeatherTracker,2013-07-11 08:44:00,
2013-07-11 01:49:00,68.4,44.4,29.77,WNW,302,0.0,1.0,42,0.00,,,0.00,WeatherTracker,2013-07-11 08:49:00,
2013-07-11 01:54:00,68.5,44.5,29.77,WNW,302,0.0,1.0,42,0.00,,,0.00,WeatherTracker,2013-07-11 08:54:00,
2013-07-11 01:59:00,68.5,45.7,29.77,WNW,302,0.0,1.0,44,0.00,,,0.00,WeatherTracker,2013-07-11 08:59:00,
2013-07-11 02:04:00,69.2,45.7,29.77,SSE,167,0.0,0.0,43,0.00,,,0.00,WeatherTracker,2013-07-11 09:04:00,
2013-07-11 02:09:00,69.1,45.0,29.77,SSE,167,0.0,4.0,42,0.00,,,0.00,WeatherTracker,2013-07-11 09:09:00,
2013-07-11 02:14:00,69.1,46.3,29.77,SSE,167,0.0,4.0,44,0.00,,,0.00,WeatherTracker,2013-07-11 09:14:00,
2013-07-11 02:19:00,69.0,45.6,29.77,SSE,167,0.0,3.0,43,0.00,,,0.00,WeatherTracker,2013-07-11 09:19:00,
2013-07-11 02:24:00,69.1,45.7,29.77,ESE,119,0.0,2.0,43,0.00,,,0.00,WeatherTracker,2013-07-11 09:24:00,
2013-07-11 02:29:00,69.7,44.9,29.77,ESE,119,0.0,3.0,41,0.00,,,0.00,WeatherTracker,2013-07-11 09:29:00,
2013-07-11 02:34:00,70.9,44.0,29.77,SE,133,1.0,3.0,38,0.00,,,0.00,WeatherTracker,2013-07-11 09:34:00,
2013-07-11 02:39:00,71.5,44.5,29.77,SE,135,0.0,5.0,38,0.00,,,0.00,WeatherTracker,2013-07-11 09:39:00,
2013-07-11 02:44:00,72.0,44.3,29.77,SE,135,0.0,5.0,37,0.00,,,0.00,WeatherTracker,2013-07-11 09:44:00,
2013-07-11 02:50:00,72.3,42.3,29.76,SE,125,0.0,3.0,34,0.00,,,0.00,WeatherTracker,2013-07-11 09:50:00,
2013-07-11 02:55:00,72.6,43.4,29.76,East,96,0.0,6.0,35,0.00,,,0.00,WeatherTracker,2013-07-11 09:55:00,
2013-07-11 03:00:00,73.3,43.2,29.77,SE,124,0.0,6.0,34,0.00,,,0.00,WeatherTracker,2013-07-11 10:00:00,
2013-07-11 03:05:00,74.2,42.4,29.76,SE,124,0.0,4.0,32,0.00,,,0.00,WeatherTracker,2013-07-11 10:05:00,
2013-07-11 03:10:00,74.3,44.1,29.76,East,100,0.0,3.0,34,0.00,,,0.00,WeatherTracker,2013-07-11 10:10:00,
2013-07-11 03:15:00,73.4,42.5,29.75,South,173,10.0,11.0,33,0.00,,,0.00,WeatherTracker,2013-07-11 10:15:00,
2013-07-11 03:20:00,74.0,42.3,29.75,SSE,157,2.0,11.0,32,0.00,,,0.00,WeatherTracker,2013-07-11 10:20:00,
2013-07-11 03:25:00,74.4,41.8,29.76,South,183,6.0,11.0,31,0.00,,,0.00,WeatherTracker,2013-07-11 10:25:00,
2013-07-11 03:30:00,75.1,42.4,29.76,South,177,3.0,10.0,31,0.00,,,0.00,WeatherTracker,2013-07-11 10:30:00,
2013-07-11 03:35:00,75.1,42.4,29.75,SSW,202,4.0,10.0,31,0.00,,,0.00,WeatherTracker,2013-07-11 10:35:00,
2013-07-11 03:40:00,75.0,41.4,29.75,South,180,0.0,9.0,30,0.00,,,0.00,WeatherTracker,2013-07-11 10:40:00,
2013-07-11 03:45:00,74.6,41.1,29.75,South,169,5.0,12.0,30,0.00,,,0.00,WeatherTracker,2013-07-11 10:45:00,
2013-07-11 03:50:00,74.9,42.2,29.75,SSE,164,0.0,12.0,31,0.00,,,0.00,WeatherTracker,2013-07-11 10:50:00,
2013-07-11 03:55:00,74.2,43.2,29.75,SE,130,0.0,10.0,33,0.00,,,0.00,WeatherTracker,2013-07-11 10:55:00,
2013-07-11 04:00:00,73.5,41.8,29.75,South,171,2.0,10.0,32,0.00,,,0.00,WeatherTracker,2013-07-11 11:00:00,
2013-07-11 04:05:00,73.4,42.5,29.75,ESE,111,0.0,10.0,33,0.00,,,0.00,WeatherTracker,2013-07-11 11:05:00,
2013-07-11 04:10:00,73.4,40.9,29.75,East,95,0.0,9.0,31,0.00,,,0.00,WeatherTracker,2013-07-11 11:10:00,
2013-07-11 04:15:00,73.1,41.5,29.75,ESE,123,1.0,9.0,32,0.00,,,0.00,WeatherTracker,2013-07-11 11:15:00,
2013-07-11 04:20:00,73.5,41.0,29.75,NNW,339,1.0,7.0,31,0.00,,,0.00,WeatherTracker,2013-07-11 11:20:00,
2013-07-11 04:25:00,73.4,40.9,29.74,East,88,2.0,10.0,31,0.00,,,0.00,WeatherTracker,2013-07-11 11:25:00,
2013-07-11 04:30:00,72.8,42.0,29.74,East,88,2.0,10.0,33,0.00,,,0.00,WeatherTracker,2013-07-11 11:30:00,
2013-07-11 04:35:00,71.9,41.2,29.75,NW,320,2.0,5.0,33,0.00,,,0.00,WeatherTracker,2013-07-11 11:35:00,
2013-07-11 04:40:00,71.9,41.2,29.74,SSE,149,0.0,7.0,33,0.00,,,0.00,WeatherTracker,2013-07-11 11:40:00,
2013-07-11 04:45:00,72.1,40.6,29.74,ESE,123,0.0,7.0,32,0.00,,,0.00,WeatherTracker,2013-07-11 11:45:00,
2013-07-11 04:50:00,72.7,41.1,29.74,SE,131,1.0,12.0,32,0.00,,,0.00,WeatherTracker,2013-07-11 11:50:00,
2013-07-11 04:55:00,73.0,40.6,29.75,East,100,0.0,12.0,31,0.00,,,0.00,WeatherTracker,2013-07-11 11:55:00,
2013-07-11 05:00:00,73.0,40.6,29.75,ESE,112,4.0,7.0,31,0.00,,,0.00,WeatherTracker,2013-07-11 12:00:00,
2013-07-11 05:05:00,73.1,41.5,29.75,East,92,6.0,9.0,32,0.00,,,0.00,WeatherTracker,2013-07-11 12:05:00,
2013-07-11 05:10:00,73.2,41.6,29.74,East,87,0.0,9.0,32,0.00,,,0.00,WeatherTracker,2013-07-11 12:10:00,
2013-07-11 05:15:00,72.8,40.4,29.75,West,266,5.0,13.0,31,0.00,,,0.00,WeatherTracker,2013-07-11 12:15:00,
2013-07-11 05:20:00,73.3,40.8,29.75,SSE,164,3.0,13.0,31,0.00,,,0.00,WeatherTracker,2013-07-11 12:20:00,
2013-07-11 05:25:00,73.2,41.6,29.75,WNW,298,6.0,9.0,32,0.00,,,0.00,WeatherTracker,2013-07-11 12:25:00,
2013-07-11 05:31:00,73.0,40.6,29.75,NNW,333,6.0,9.0,31,0.00,,,0.00,WeatherTracker,2013-07-11 12:31:00,
2013-07-11 05:36:00,72.9,41.3,29.74,South,169,0.0,15.0,32,0.00,,,0.00,WeatherTracker,2013-07-11 12:36:00,
2013-07-11 05:41:00,72.8,41.2,29.74,SSE,158,3.0,15.0,32,0.00,,,0.00,WeatherTracker,2013-07-11 12:41:00,
2013-07-11 05:46:00,72.3,41.6,29.75,SE,129,1.0,10.0,33,0.00,,,0.00,WeatherTracker,2013-07-11 12:46:00,
2013-07-11 05:51:00,72.5,41.0,29.75,South,183,12.0,12.0,32,0.00,,,0.00,WeatherTracker,2013-07-11 12:51:00,
2013-07-11 05:56:00,73.2,40.7,29.75,South,178,6.0,17.0,31,0.00,,,0.00,WeatherTracker,2013-07-11 12:56:00,
2013-07-11 06:01:00,73.1,40.7,29.75,South,177,5.0,17.0,31,0.00,,,0.00,WeatherTracker,2013-07-11 13:01:00,
2013-07-11 06:06:00,72.8,40.4,29.75,South,175,9.0,14.0,31,0.00,,,0.00,WeatherTracker,2013-07-11 13:06:00,
2013-07-11 06:11:00,72.8,41.2,29.75,South,175,6.0,12.0,32,0.00,,,0.00,WeatherTracker,2013-07-11 13:11:00,
2013-07-11 06:16:00,73.0,40.6,29.74,South,186,7.0,13.0,31,0.00,,,0.00,WeatherTracker,2013-07-11 13:16:00,
2013-07-11 06:21:00,73.1,40.7,29.74,WSW,239,10.0,14.0,31,0.00,,,0.00,WeatherTracker,2013-07-11 13:21:00,
2013-07-11 06:26:00,73.5,41.0,29.74,South,172,3.0,14.0,31,0.00,,,0.00,WeatherTracker,2013-07-11 13:26:00,
2013-07-11 06:31:00,73.3,40.8,29.74,SSW,202,6.0,14.0,31,0.00,,,0.00,WeatherTracker,2013-07-11 13:31:00,
2013-07-11 06:37:00,73.2,40.7,29.74,SSW,207,12.0,14.0,31,0.00,,,0.00,WeatherTracker,2013-07-11 13:37:00,
2013-07-11 06:42:00,73.6,40.2,29.74,SW,223,12.0,18.0,30,0.00,,,0.00,WeatherTracker,2013-07-11 13:42:00,
2013-07-11 06:47:00,73.6,41.1,29.74,South,183,4.0,18.0,31,0.00,,,0.00,WeatherTracker,2013-07-11 13:47:00,
2013-07-11 06:52:00,73.5,40.2,29.74,SW,228,6.0,15.0,30,0.00,,,0.00,WeatherTracker,2013-07-11 13:52:00,
2013-07-11 06:57:00,73.3,40.8,29.74,South,177,10.0,14.0,31,0.00,,,0.00,WeatherTracker,2013-07-11 13:57:00,
2013-07-11 07:02:00,73.4,40.1,29.74,West,259,6.0,17.0,30,0.00,,,0.00,WeatherTracker,2013-07-11 14:02:00,
2013-07-11 07:07:00,73.4,40.1,29.74,SSW,196,15.0,17.0,30,0.00,,,0.00,WeatherTracker,2013-07-11 14:07:00,
2013-07-11 07:12:00,73.2,40.7,29.74,South,181,10.0,17.0,31,0.00,,,0.00,WeatherTracker,2013-07-11 14:12:00,
2013-07-11 07:17:00,73.5,41.0,29.74,South,177,8.0,20.0,31,0.00,,,0.00,WeatherTracker,2013-07-11 14:17:00,
2013-07-11 07:22:00,73.9,40.5,29.74,SW,223,8.0,20.0,30,0.00,,,0.00,WeatherTracker,2013-07-11 14:22:00,
2013-07-11 07:27:00,73.8,42.1,29.74,South,181,10.0,27.0,32,0.00,,,0.00,WeatherTracker,2013-07-11 14:27:00,
2013-07-11 07:32:00,73.3,41.6,29.74,SSE,166,7.0,27.0,32,0.00,,,0.00,WeatherTracker,2013-07-11 14:32:00,
2013-07-11 07:37:00,73.3,43.2,29.74,SSW,194,4.0,11.0,34,0.00,,,0.00,WeatherTracker,2013-07-11 14:37:00,
2013-07-11 07:42:00,73.0,42.2,29.74,South,179,9.0,11.0,33,0.00,,,0.00,WeatherTracker,2013-07-11 14:42:00,
2013-07-11 07:47:00,72.9,42.9,29.73,South,174,9.0,11.0,34,0.00,,,0.00,WeatherTracker,2013-07-11 14:47:00,
2013-07-11 07:52:00,72.2,43.0,29.73,SSW,197,7.0,11.0,35,0.00,,,0.00,WeatherTracker,2013-07-11 14:52:00,
2013-07-11 07:57:00,72.6,42.6,29.73,SSW,192,8.0,12.0,34,0.00,,,0.00,WeatherTracker,2013-07-11 14:57:00,
2013-07-11 08:02:00,72.1,44.4,29.73,South,176,13.0,13.0,37,0.00,,,0.00,WeatherTracker,2013-07-11 15:02:00,
2013-07-11 08:07:00,72.5,44.0,29.73,South,169,12.0,14.0,36,0.00,,,0.00,WeatherTracker,2013-07-11 15:07:00,
2013-07-11 08:12:00,73.4,44.8,29.73,South,171,14.0,14.0,36,0.00,,,0.00,WeatherTracker,2013-07-11 15:12:00,
2013-07-11 08:17:00,73.1,45.3,29.73,SE,135,10.0,15.0,37,0.00,,,0.00,WeatherTracker,2013-07-11 15:17:00,
2013-07-11 08:22:00,72.8,43.5,29.73,SE,145,11.0,15.0,35,0.00,,,0.00,WeatherTracker,2013-07-11 15:22:00,
2013-07-11 08:27:00,72.5,44.7,29.73,South,169,6.0,16.0,37,0.00,,,0.00,WeatherTracker,2013-07-11 15:27:00,
2013-07-11 08:33:00,72.3,45.3,29.73,South,169,8.0,16.0,38,0.00,,,0.00,WeatherTracker,2013-07-11 15:33:00,
2013-07-11 08:38:00,72.7,43.5,29.73,South,169,10.0,18.0,35,0.00,,,0.00,WeatherTracker,2013-07-11 15:38:00,
2013-07-11 08:43:00,72.8,45.0,29.73,SE,135,5.0,18.0,37,0.00,,,0.00,WeatherTracker,2013-07-11 15:43:00,
2013-07-11 08:48:00,72.8,45.7,29.73,SSE,154,7.0,17.0,38,0.00,,,0.00,WeatherTracker,2013-07-11 15:48:00,
2013-07-11 08:53:00,72.7,45.6,29.73,South,169,6.0,14.0,38,0.00,,,0.00,WeatherTracker,2013-07-11 15:53:00,
2013-07-11 08:58:00,72.9,45.8,29.73,SSE,154,6.0,14.0,38,0.00,,,0.00,WeatherTracker,2013-07-11 15:58:00,
2013-07-11 09:03:00,72.4,47.4,29.73,SSE,154,10.0,19.0,41,0.00,,,0.00,WeatherTracker,2013-07-11 16:03:00,
2013-07-11 09:08:00,72.0,47.6,29.73,SE,137,5.0,19.0,42,0.00,,,0.00,WeatherTracker,2013-07-11 16:08:00,
2013-07-11 09:13:00,72.2,46.5,29.73,SSE,148,5.0,18.0,40,0.00,,,0.00,WeatherTracker,2013-07-11 16:13:00,
2013-07-11 09:18:00,72.7,47.6,29.72,SSE,167,11.0,15.0,41,0.00,,,0.00,WeatherTracker,2013-07-11 16:18:00,
2013-07-11 09:23:00,73.2,50.0,29.72,ESE,113,6.0,16.0,44,0.00,,,0.00,WeatherTracker,2013-07-11 16:23:00,
2013-07-11 09:28:00,72.9,49.7,29.72,SE,137,7.0,16.0,44,0.00,,,0.00,WeatherTracker,2013-07-11 16:28:00,
2013-07-11 09:33:00,72.6,49.4,29.72,ESE,102,7.0,13.0,44,0.00,,,0.00,WeatherTracker,2013-07-11 16:33:00,
2013-07-11 09:38:00,72.5,49.3,29.72,SE,130,9.0,13.0,44,0.00,,,0.00,WeatherTracker,2013-07-11 16:38:00,
2013-07-11 09:43:00,73.0,50.4,29.72,South,169,7.0,12.0,45,0.00,,,0.00,WeatherTracker,2013-07-11 16:43:00,
2013-07-11 09:48:00,73.5,50.2,29.72,ESE,112,3.0,12.0,44,0.00,,,0.00,WeatherTracker,2013-07-11 16:48:00,
2013-07-11 09:53:00,73.9,50.0,29.71,SE,146,6.0,11.0,43,0.00,,,0.00,WeatherTracker,2013-07-11 16:53:00,
2013-07-11 09:59:00,74.1,50.2,29.71,ESE,115,3.0,13.0,43,0.00,,,0.00,WeatherTracker,2013-07-11 16:59:00,
2013-07-11 10:04:00,74.7,49.4,29.71,SE,140,12.0,14.0,41,0.00,,,0.00,WeatherTracker,2013-07-11 17:04:00,
2013-07-11 10:09:00,75.5,48.8,29.71,ESE,106,11.0,14.0,39,0.00,,,0.00,WeatherTracker,2013-07-11 17:09:00,
2013-07-11 10:14:00,75.5,49.5,29.71,SE,129,5.0,14.0,40,0.00,,,0.00,WeatherTracker,2013-07-11 17:14:00,
2013-07-11 10:19:00,76.2,52.0,29.71,SE,140,6.0,15.0,43,0.00,,,0.00,WeatherTracker,2013-07-11 17:19:00,
2013-07-11 10:24:00,77.2,48.9,29.71,East,98,7.0,15.0,37,0.00,,,0.00,WeatherTracker,2013-07-11 17:24:00,
2013-07-11 10:29:00,78.2,49.0,29.71,East,95,5.0,15.0,36,0.00,,,0.00,WeatherTracker,2013-07-11 17:29:00,
2013-07-11 10:34:00,79.1,49.8,29.70,East,95,11.0,15.0,36,0.00,,,0.00,WeatherTracker,2013-07-11 17:34:00,
2013-07-11 10:39:00,78.7,50.2,29.70,SE,127,13.0,14.0,37,0.00,,,0.00,WeatherTracker,2013-07-11 17:39:00,
2013-07-11 10:44:00,77.7,48.6,29.70,SSE,161,6.0,16.0,36,0.00,,,0.00,WeatherTracker,2013-07-11 17:44:00,
2013-07-11 10:49:00,77.4,49.1,29.70,South,171,11.0,17.0,37,0.00,,,0.00,WeatherTracker,2013-07-11 17:49:00,
2013-07-11 10:54:00,77.4,49.8,29.70,SW,223,8.0,22.0,38,0.00,,,0.00,WeatherTracker,2013-07-11 17:54:00,
2013-07-11 10:59:00,77.7,50.0,29.70,SE,146,9.0,23.0,38,0.00,,,0.00,WeatherTracker,2013-07-11 17:59:00,
2013-07-11 11:04:00,78.3,47.6,29.70,SE,125,9.0,23.0,34,0.00,,,0.00,WeatherTracker,2013-07-11 18:04:00,
2013-07-11 11:09:00,78.4,49.2,29.69,SSE,153,9.0,20.0,36,0.00,,,0.00,WeatherTracker,2013-07-11 18:09:00,
2013-07-11 11:14:00,78.4,46.9,29.70,SSE,159,5.0,20.0,33,0.00,,,0.00,WeatherTracker,2013-07-11 18:14:00,
2013-07-11 11:19:00,78.7,46.3,29.69,South,173,5.0,15.0,32,0.00,,,0.00,WeatherTracker,2013-07-11 18:19:00,
2013-07-11 11:25:00,78.7,48.7,29.69,ESE,110,10.0,19.0,35,0.00,,,0.00,WeatherTracker,2013-07-11 18:25:00,
2013-07-11 11:30:00,78.8,48.0,29.69,SSE,162,10.0,19.0,34,0.00,,,0.00,WeatherTracker,2013-07-11 18:30:00,
2013-07-11 11:35:00,79.1,48.3,29.69,SE,141,5.0,13.0,34,0.00,,,0.00,WeatherTracker,2013-07-11 18:35:00,
2013-07-11 11:40:00,79.3,46.9,29.69,SE,145,10.0,13.0,32,0.00,,,0.00,WeatherTracker,2013-07-11 18:40:00,
2013-07-11 11:45:00,80.1,50.0,29.69,South,183,6.0,17.0,35,0.00,,,0.00,WeatherTracker,2013-07-11 18:45:00,
2013-07-11 11:50:00,80.2,50.0,29.68,SE,137,3.0,13.0,35,0.00,,,0.00,WeatherTracker,2013-07-11 18:50:00,
2013-07-11 11:55:00,80.9,48.2,29.68,South,179,11.0,13.0,32,0.00,,,0.00,WeatherTracker,2013-07-11 18:55:00,
2013-07-11 12:00:00,81.8,44.5,29.68,East,83,6.0,11.0,27,0.00,,,0.00,WeatherTracker,2013-07-11 19:00:00,
2013-07-11 12:05:00,83.1,48.4,29.68,SSE,165,18.0,18.0,30,0.00,,,0.00,WeatherTracker,2013-07-11 19:05:00,
2013-07-11 12:10:00,82.1,44.8,29.68,SE,129,6.0,20.0,27,0.00,,,0.00,WeatherTracker,2013-07-11 19:10:00,
2013-07-11 12:15:00,83.0,47.4,29.68,SSE,153,5.0,20.0,29,0.00,,,0.00,WeatherTracker,2013-07-11 19:15:00,
2013-07-11 12:20:00,82.9,46.4,29.68,South,171,4.0,14.0,28,0.00,,,0.00,WeatherTracker,2013-07-11 19:20:00,
2013-07-11 12:25:00,82.1,41.7,29.68,South,172,4.0,30.0,24,0.00,,,0.00,WeatherTracker,2013-07-11 19:25:00,
2013-07-11 12:30:00,82.9,46.4,29.68,South,173,9.0,30.0,28,0.00,,,0.00,WeatherTracker,2013-07-11 19:30:00,
2013-07-11 12:35:00,83.0,42.5,29.68,SSW,204,6.0,24.0,24,0.00,,,0.00,WeatherTracker,2013-07-11 19:35:00,
2013-07-11 12:40:00,83.0,46.5,29.68,South,176,5.0,23.0,28,0.00,,,0.00,WeatherTracker,2013-07-11 19:40:00,
2013-07-11 12:45:00,82.9,45.5,29.68,WSW,254,3.0,23.0,27,0.00,,,0.00,WeatherTracker,2013-07-11 19:45:00,
2013-07-11 12:50:00,83.1,45.6,29.67,WSW,246,5.0,20.0,27,0.00,,,0.00,WeatherTracker,2013-07-11 19:50:00,
2013-07-11 12:55:00,82.9,43.4,29.67,WSW,253,3.0,13.0,25,0.00,,,0.00,WeatherTracker,2013-07-11 19:55:00,
2013-07-11 13:00:00,82.9,42.4,29.67,NNE,19,0.0,15.0,24,0.00,,,0.00,WeatherTracker,2013-07-11 20:00:00,
2013-07-11 13:06:00,82.8,44.4,29.68,SSE,157,9.0,15.0,26,0.00,,,0.00,WeatherTracker,2013-07-11 20:06:00,
2013-07-11 13:11:00,82.7,43.3,29.68,West,271,3.0,14.0,25,0.00,,,0.00,WeatherTracker,2013-07-11 20:11:00,
2013-07-11 13:16:00,83.5,43.9,29.68,South,186,11.0,14.0,25,0.00,,,0.00,WeatherTracker,2013-07-11 20:16:00,
2013-07-11 13:21:00,83.5,42.9,29.68,West,280,0.0,15.0,24,0.00,,,0.00,WeatherTracker,2013-07-11 20:21:00,
2013-07-11 13:26:00,83.7,46.1,29.67,WSW,250,14.0,15.0,27,0.00,,,0.00,WeatherTracker,2013-07-11 20:26:00,
2013-07-11 13:31:00,83.8,45.2,29.67,SE,138,9.0,15.0,26,0.00,,,0.00,WeatherTracker,2013-07-11 20:31:00,
2013-07-11 13:36:00,83.6,48.9,29.67,SSE,161,7.0,17.0,30,0.00,,,0.00,WeatherTracker,2013-07-11 20:36:00,
2013-07-11 13:41:00,83.3,42.7,29.67,SSW,203,8.0,19.0,24,0.00,,,0.00,WeatherTracker,2013-07-11 20:41:00,
2013-07-11 13:46:00,82.9,44.5,29.67,South,175,7.0,24.0,26,0.00,,,0.00,WeatherTracker,2013-07-11 20:46:00,
2013-07-11 13:51:00,83.0,43.5,29.67,South,182,7.0,24.0,25,0.00,,,0.00,WeatherTracker,2013-07-11 20:51:00,
2013-07-11 13:56:00,83.6,44.0,29.66,SW,226,5.0,23.0,25,0.00,,,0.00,WeatherTracker,2013-07-11 20:56:00,
2013-07-11 14:01:00,83.6,44.0,29.66,WSW,246,3.0,23.0,25,0.00,,,0.00,WeatherTracker,2013-07-11 21:01:00,
2013-07-11 14:07:00,83.2,44.7,29.66,SW,218,11.0,19.0,26,0.00,,,0.00,WeatherTracker,2013-07-11 21:07:00,
2013-07-11 14:12:00,83.5,41.8,29.67,SW,234,15.0,19.0,23,0.00,,,0.00,WeatherTracker,2013-07-11 21:12:00,
2013-07-11 14:17:00,83.4,42.8,29.66,SSW,198,11.0,26.0,24,0.00,,,0.00,WeatherTracker,2013-07-11 21:17:00,
2013-07-11 14:22:00,83.2,43.7,29.66,WSW,252,2.0,26.0,25,0.00,,,0.00,WeatherTracker,2013-07-11 21:22:00,
2013-07-11 14:27:00,83.8,43.1,29.65,SSE,163,10.0,17.0,24,0.00,,,0.00,WeatherTracker,2013-07-11 21:27:00,
2013-07-11 14:32:00,83.3,41.6,29.65,South,187,9.0,25.0,23,0.00,,,0.00,WeatherTracker,2013-07-11 21:32:00,
2013-07-11 14:37:00,83.9,44.3,29.65,South,185,1.0,25.0,25,0.00,,,0.00,WeatherTracker,2013-07-11 21:37:00,
2013-07-11 14:42:00,84.1,43.4,29.64,SW,236,9.0,22.0,24,0.00,,,0.00,WeatherTracker,2013-07-11 21:42:00,
2013-07-11 14:47:00,83.5,42.9,29.65,WSW,254,4.0,23.0,24,0.00,,,0.00,WeatherTracker,2013-07-11 21:47:00,
2013-07-11 14:53:00,83.6,43.0,29.65,West,275,10.0,23.0,24,0.00,,,0.00,WeatherTracker,2013-07-11 21:53:00,
2013-07-11 14:58:00,83.4,39.3,29.65,West,260,16.0,17.0,21,0.00,,,0.00,WeatherTracker,2013-07-11 21:58:00,
2013-07-11 15:03:00,83.0,42.5,29.65,WSW,241,3.0,23.0,24,0.00,,,0.00,WeatherTracker,2013-07-11 22:03:00,
2013-07-11 15:08:00,83.4,43.9,29.64,WSW,242,3.0,30.0,25,0.00,,,0.00,WeatherTracker,2013-07-11 22:08:00,
2013-07-11 15:13:00,83.7,43.0,29.65,WNW,284,10.0,30.0,24,0.00,,,0.00,WeatherTracker,2013-07-11 22:13:00,
2013-07-11 15:18:00,83.3,43.8,29.64,West,265,8.0,20.0,25,0.00,,,0.00,WeatherTracker,2013-07-11 22:18:00,
2013-07-11 15:23:00,83.6,43.0,29.65,SW,216,11.0,20.0,24,0.00,,,0.00,WeatherTracker,2013-07-11 22:23:00,
2013-07-11 15:28:00,83.4,44.9,29.64,WNW,297,2.0,18.0,26,0.00,,,0.00,WeatherTracker,2013-07-11 22:28:00,
2013-07-11 15:33:00,83.4,41.7,29.64,West,277,5.0,20.0,23,0.00,,,0.00,WeatherTracker,2013-07-11 22:33:00,
2013-07-11 15:38:00,83.5,42.9,29.64,SSW,203,10.0,20.0,24,0.00,,,0.00,WeatherTracker,2013-07-11 22:38:00,
2013-07-11 15:43:00,83.7,43.0,29.64,South,174,14.0,19.0,24,0.00,,,0.00,WeatherTracker,2013-07-11 22:43:00,
2013-07-11 15:48:00,83.4,41.7,29.64,SW,227,17.0,17.0,23,0.00,,,0.00,WeatherTracker,2013-07-11 22:48:00,
2013-07-11 15:53:00,82.9,38.9,29.64,SSW,195,16.0,21.0,21,0.00,,,0.00,WeatherTracker,2013-07-11 22:53:00,
2013-07-11 15:58:00,82.7,41.1,29.64,WSW,239,7.0,22.0,23,0.00,,,0.00,WeatherTracker,2013-07-11 22:58:00,
2013-07-11 16:03:00,82.7,38.8,29.64,WSW,241,4.0,23.0,21,0.00,,,0.00,WeatherTracker,2013-07-11 23:03:00,
2013-07-11 16:08:00,82.7,40.0,29.64,SSW,206,11.0,23.0,22,0.00,,,0.00,WeatherTracker,2013-07-11 23:08:00,
2013-07-11 16:13:00,82.7,41.1,29.64,West,268,9.0,22.0,23,0.00,,,0.00,WeatherTracker,2013-07-11 23:13:00,
2013-07-11 16:18:00,82.4,42.0,29.64,WSW,258,11.0,22.0,24,0.00,,,0.00,WeatherTracker,2013-07-11 23:18:00,
2013-07-11 16:23:00,82.3,41.9,29.64,SSW,200,12.0,23.0,24,0.00,,,0.00,WeatherTracker,2013-07-11 23:23:00,
2013-07-11 16:28:00,82.7,43.3,29.64,WSW,252,5.0,24.0,25,0.00,,,0.00,WeatherTracker,2013-07-11 23:28:00,
2013-07-11 16:33:00,83.0,41.4,29.64,SW,230,12.0,24.0,23,0.00,,,0.00,WeatherTracker,2013-07-11 23:33:00,
2013-07-11 16:38:00,82.4,38.5,29.63,SW,222,7.0,16.0,21,0.00,,,0.00,WeatherTracker,2013-07-11 23:38:00,
2013-07-11 16:43:00,82.2,40.7,29.64,SW,218,14.0,22.0,23,0.00,,,0.00,WeatherTracker,2013-07-11 23:43:00,
2013-07-11 16:48:00,82.1,40.6,29.63,West,264,14.0,22.0,23,0.00,,,0.00,WeatherTracker,2013-07-11 23:48:00,
2013-07-11 16:54:00,82.3,44.0,29.63,WNW,284,9.0,21.0,26,0.00,,,0.00,WeatherTracker,2013-07-11 23:54:00,
2013-07-11 16:59:00,82.2,42.9,29.64,SSW,211,9.0,26.0,25,0.00,,,0.00,WeatherTracker,2013-07-11 23:59:00,
2013-07-11 17:04:00,82.2,42.9,29.63,WSW,248,10.0,27.0,25,0.00,,,0.00,WeatherTracker,2013-07-12 00:04:00,
2013-07-11 17:09:00,82.0,43.7,29.63,West,277,10.0,27.0,26,0.00,,,0.00,WeatherTracker,2013-07-12 00:09:00,
2013-07-11 17:14:00,81.8,43.5,29.63,WSW,242,13.0,17.0,26,0.00,,,0.00,WeatherTracker,2013-07-12 00:14:00,
2013-07-11 17:19:00,81.5,43.3,29.63,WNW,295,9.0,22.0,26,0.00,,,0.00,WeatherTracker,2013-07-12 00:19:00,
2013-07-11 17:24:00,81.5,44.3,29.63,SW,215,20.0,23.0,27,0.00,,,0.00,WeatherTracker,2013-07-12 00:24:00,
2013-07-11 17:29:00,81.4,44.2,29.62,WNW,286,12.0,24.0,27,0.00,,,0.00,WeatherTracker,2013-07-12 00:29:00,
2013-07-11 17:34:00,81.0,43.8,29.63,SSW,210,9.0,24.0,27,0.00,,,0.00,WeatherTracker,2013-07-12 00:34:00,
2013-07-11 17:39:00,81.4,44.2,29.63,SW,219,6.0,21.0,27,0.00,,,0.00,WeatherTracker,2013-07-12 00:39:00,
2013-07-11 17:44:00,81.2,43.0,29.63,SSE,155,11.0,21.0,26,0.00,,,0.00,WeatherTracker,2013-07-12 00:44:00,
2013-07-11 17:49:00,80.9,41.8,29.63,West,273,10.0,21.0,25,0.00,,,0.00,WeatherTracker,2013-07-12 00:49:00,
2013-07-11 17:54:00,80.8,42.7,29.63,SW,225,17.0,25.0,26,0.00,,,0.00,WeatherTracker,2013-07-12 00:54:00,
2013-07-11 17:59:00,80.8,43.7,29.63,WSW,245,5.0,25.0,27,0.00,,,0.00,WeatherTracker,2013-07-12 00:59:00,
2013-07-11 18:04:00,80.6,43.5,29.63,WSW,249,6.0,20.0,27,0.00,,,0.00,WeatherTracker,2013-07-12 01:04:00,
2013-07-11 18:10:00,80.5,43.4,29.63,WNW,291,6.0,21.0,27,0.00,,,0.00,WeatherTracker,2013-07-12 01:10:00,
2013-07-11 18:15:00,80.3,42.3,29.63,SW,222,13.0,20.0,26,0.00,,,0.00,WeatherTracker,2013-07-12 01:15:00,
2013-07-11 18:20:00,80.2,43.2,29.64,SSW,208,6.0,20.0,27,0.00,,,0.00,WeatherTracker,2013-07-12 01:20:00,
2013-07-11 18:25:00,80.0,43.9,29.64,SW,219,10.0,18.0,28,0.00,,,0.00,WeatherTracker,2013-07-12 01:25:00,
2013-07-11 18:30:00,79.9,43.9,29.64,SW,234,9.0,18.0,28,0.00,,,0.00,WeatherTracker,2013-07-12 01:30:00,
2013-07-11 18:35:00,79.6,43.6,29.64,West,276,5.0,18.0,28,0.00,,,0.00,WeatherTracker,2013-07-12 01:35:00,
2013-07-11 18:40:00,79.6,43.6,29.64,SSE,155,11.0,15.0,28,0.00,,,0.00,WeatherTracker,2013-07-12 01:40:00,
2013-07-11 18:45:00,79.4,43.4,29.64,SSW,210,9.0,14.0,28,0.00,,,0.00,WeatherTracker,2013-07-12 01:45:00,
2013-07-11 18:50:00,79.1,44.1,29.64,West,281,6.0,14.0,29,0.00,,,0.00,WeatherTracker,2013-07-12 01:50:00,
2013-07-11 18:55:00,79.1,44.1,29.64,West,276,7.0,14.0,29,0.00,,,0.00,WeatherTracker,2013-07-12 01:55:00,
2013-07-11 19:00:00,78.7,42.8,29.64,West,275,3.0,16.0,28,0.00,,,0.00,WeatherTracker,2013-07-12 02:00:00,
2013-07-11 19:05:00,78.4,42.6,29.64,SSW,208,11.0,20.0,28,0.00,,,0.00,WeatherTracker,2013-07-12 02:05:00,
2013-07-11 19:10:00,77.9,43.1,29.64,West,261,6.0,20.0,29,0.00,,,0.00,WeatherTracker,2013-07-12 02:10:00,
2013-07-11 19:15:00,77.7,42.0,29.64,West,265,11.0,16.0,28,0.00,,,0.00,WeatherTracker,2013-07-12 02:15:00,
2013-07-11 19:20:00,77.4,41.7,29.65,SW,236,4.0,16.0,28,0.00,,,0.00,WeatherTracker,2013-07-12 02:20:00,
2013-07-11 19:26:00,77.1,41.5,29.65,SW,229,5.0,16.0,28,0.00,,,0.00,WeatherTracker,2013-07-12 02:26:00,
2013-07-11 19:31:00,76.4,41.8,29.65,South,190,11.0,15.0,29,0.00,,,0.00,WeatherTracker,2013-07-12 02:31:00,
2013-07-11 19:36:00,75.7,41.2,29.65,WSW,250,1.0,16.0,29,0.00,,,0.00,WeatherTracker,2013-07-12 02:36:00,
2013-07-11 19:41:00,75.5,41.0,29.65,WSW,241,3.0,16.0,29,0.00,,,0.00,WeatherTracker,2013-07-12 02:41:00,
2013-07-11 19:46:00,75.1,40.7,29.65,South,189,6.0,10.0,29,0.00,,,0.00,WeatherTracker,2013-07-12 02:46:00,
2013-07-11 19:51:00,75.1,40.7,29.65,WSW,243,2.0,16.0,29,0.00,,,0.00,WeatherTracker,2013-07-12 02:51:00,
2013-07-11 19:56:00,75.1,40.7,29.65,WSW,246,1.0,16.0,29,0.00,,,0.00,WeatherTracker,2013-07-12 02:56:00,
2013-07-11 20:01:00,74.7,40.3,29.65,WSW,254,9.0,12.0,29,0.00,,,0.00,WeatherTracker,2013-07-12 03:01:00,
2013-07-11 20:06:00,74.5,39.2,29.65,WSW,252,5.0,12.0,28,0.00,,,0.00,WeatherTracker,2013-07-12 03:06:00,
2013-07-11 20:11:00,74.4,39.2,29.65,WSW,256,6.0,12.0,28,0.00,,,0.00,WeatherTracker,2013-07-12 03:11:00,
2013-07-11 20:16:00,74.5,39.2,29.65,WNW,291,4.0,15.0,28,0.00,,,0.00,WeatherTracker,2013-07-12 03:16:00,
2013-07-11 20:21:00,74.3,39.1,29.66,SSW,207,2.0,15.0,28,0.00,,,0.00,WeatherTracker,2013-07-12 03:21:00,
2013-07-11 20:26:00,74.5,36.4,29.66,NW,310,2.0,16.0,25,0.00,,,0.00,WeatherTracker,2013-07-12 03:26:00,
2013-07-11 20:31:00,74.5,39.2,29.66,South,190,5.0,16.0,28,0.00,,,0.00,WeatherTracker,2013-07-12 03:31:00,
2013-07-11 20:37:00,74.1,38.0,29.66,SW,229,11.0,19.0,27,0.00,,,0.00,WeatherTracker,2013-07-12 03:37:00,
2013-07-11 20:42:00,74.2,37.1,29.66,WSW,250,11.0,19.0,26,0.00,,,0.00,WeatherTracker,2013-07-12 03:42:00,
2013-07-11 20:47:00,73.8,37.7,29.66,SW,233,4.0,15.0,27,0.00,,,0.00,WeatherTracker,2013-07-12 03:47:00,
2013-07-11 20:52:00,73.7,35.7,29.66,SW,226,3.0,15.0,25,0.00,,,0.00,WeatherTracker,2013-07-12 03:52:00,
2013-07-11 20:57:00,72.4,35.6,29.67,SW,216,9.0,18.0,26,0.00,,,0.00,WeatherTracker,2013-07-12 03:57:00,
2013-07-11 21:01:00,72.8,34.9,29.67,SSW,204,5.0,18.0,25,0.00,,,0.00,WeatherTracker,2013-07-12 04:01:00,
2013-07-11 21:02:00,72.5,36.6,29.67,SSW,206,7.0,18.0,27,0.00,,,0.00,WeatherTracker,2013-07-12 04:02:00,
2013-07-11 21:03:00,72.2,37.3,29.67,South,180,5.0,18.0,28,0.00,,,0.00,WeatherTracker,2013-07-12 04:03:00,
2013-07-11 21:08:00,71.1,37.2,29.67,SSW,208,4.0,16.0,29,0.00,,,0.00,WeatherTracker,2013-07-12 04:08:00,
2013-07-11 21:13:00,70.8,36.1,29.68,West,264,3.0,7.0,28,0.00,,,0.00,WeatherTracker,2013-07-12 04:13:00,
2013-07-11 21:18:00,72.1,33.3,29.68,WSW,244,1.0,8.0,24,0.00,,,0.00,WeatherTracker,2013-07-12 04:18:00,
2013-07-11 21:23:00,72.6,36.7,29.68,ESE,110,1.0,8.0,27,0.00,,,0.00,WeatherTracker,2013-07-12 04:23:00,
2013-07-11 21:28:00,71.7,36.8,29.69,ESE,110,0.0,7.0,28,0.00,,,0.00,WeatherTracker,2013-07-12 04:28:00,
2013-07-11 21:33:00,68.8,36.9,29.69,SE,142,5.0,5.0,31,0.00,,,0.00,WeatherTracker,2013-07-12 04:33:00,
2013-07-11 21:38:00,70.8,28.9,29.69,South,169,0.0,10.0,21,0.00,,,0.00,WeatherTracker,2013-07-12 04:38:00,
2013-07-11 21:43:00,71.9,29.8,29.69,NNW,334,0.0,10.0,21,0.00,,,0.00,WeatherTracker,2013-07-12 04:43:00,
2013-07-11 21:48:00,72.4,32.5,29.69,NNW,331,6.0,10.0,23,0.00,,,0.00,WeatherTracker,2013-07-12 04:48:00,
2013-07-11 21:53:00,70.2,36.4,29.70,North,2,2.0,7.0,29,0.00,,,0.00,WeatherTracker,2013-07-12 04:53:00,
2013-07-11 21:58:00,68.5,36.7,29.70,North,6,0.0,7.0,31,0.00,,,0.00,WeatherTracker,2013-07-12 04:58:00,
2013-07-11 22:03:00,67.1,36.3,29.70,NNE,13,1.0,7.0,32,0.00,,,0.00,WeatherTracker,2013-07-12 05:03:00,
2013-07-11 22:08:00,66.5,37.3,29.70,NNE,15,0.0,5.0,34,0.00,,,0.00,WeatherTracker,2013-07-12 05:08:00,
2013-07-11 22:13:00,65.7,38.0,29.71,NNE,15,1.0,5.0,36,0.00,,,0.00,WeatherTracker,2013-07-12 05:13:00,
2013-07-11 22:18:00,64.6,38.4,29.71,NNE,15,0.0,5.0,38,0.00,,,0.00,WeatherTracker,2013-07-12 05:18:00,
2013-07-11 22:23:00,63.4,38.0,29.71,NNE,15,0.0,3.0,39,0.00,,,0.00,WeatherTracker,2013-07-12 05:23:00,
2013-07-11 22:28:00,62.8,38.1,29.71,NNE,15,1.0,3.0,40,0.00,,,0.00,WeatherTracker,2013-07-12 05:28:00,
2013-07-11 22:33:00,62.8,38.1,29.72,NNE,15,0.0,3.0,40,0.00,,,0.00,WeatherTracker,2013-07-12 05:33:00,
2013-07-11 22:39:00,62.9,36.9,29.72,NNE,15,3.0,3.0,38,0.00,,,0.00,WeatherTracker,2013-07-12 05:39:00,
2013-07-11 22:44:00,63.3,37.3,29.72,NNE,15,3.0,3.0,38,0.00,,,0.00,WeatherTracker,2013-07-12 05:44:00,
2013-07-11 22:49:00,63.6,36.8,29.72,NNW,330,0.0,4.0,37,0.00,,,0.00,WeatherTracker,2013-07-12 05:49:00,
2013-07-11 22:54:00,63.4,35.3,29.72,NW,313,3.0,4.0,35,0.00,,,0.00,WeatherTracker,2013-07-12 05:54:00,
2013-07-11 22:59:00,63.4,36.0,29.72,WNW,302,3.0,5.0,36,0.00,,,0.00,WeatherTracker,2013-07-12 05:59:00,
2013-07-11 23:04:00,62.9,35.5,29.72,WNW,303,3.0,5.0,36,0.00,,,0.00,WeatherTracker,2013-07-12 06:04:00,
2013-07-11 23:09:00,61.6,35.1,29.73,NW,304,1.0,5.0,37,0.00,,,0.00,WeatherTracker,2013-07-12 06:09:00,
2013-07-11 23:14:00,59.9,37.3,29.73,WNW,287,0.0,5.0,43,0.00,,,0.00,WeatherTracker,2013-07-12 06:14:00,
2013-07-11 23:19:00,59.0,35.9,29.73,WNW,287,0.0,4.0,42,0.00,,,0.00,WeatherTracker,2013-07-12 06:19:00,
2013-07-11 23:24:00,58.0,36.2,29.73,WNW,287,0.0,3.0,44,0.00,,,0.00,WeatherTracker,2013-07-12 06:24:00,
2013-07-11 23:29:00,57.4,37.9,29.73,WNW,287,0.0,1.0,48,0.00,,,0.00,WeatherTracker,2013-07-12 06:29:00,
2013-07-11 23:34:00,56.9,35.2,29.73,WNW,287,0.0,2.0,44,0.00,,,0.00,WeatherTracker,2013-07-12 06:34:00,
2013-07-11 23:39:00,58.0,35.6,29.73,WNW,287,0.0,2.0,43,0.00,,,0.00,WeatherTracker,2013-07-12 06:39:00,
2013-07-11 23:44:00,58.1,36.9,29.73,WNW,287,0.0,3.0,45,0.00,,,0.00,WeatherTracker,2013-07-12 06:44:00,
2013-07-11 23:49:00,57.9,37.2,29.73,WNW,287,0.0,3.0,46,0.00,,,0.00,WeatherTracker,2013-07-12 06:49:00,
2013-07-11 23:54:00,57.1,36.0,29.74,WNW,287,1.0,2.0,45,0.00,,,0.00,WeatherTracker,2013-07-12 06:54:00,
2013-07-11 23:59:00,56.3,35.2,29.74,WNW,287,3.0,3.0,45,0.00,,,0.00,WeatherTracker,2013-07-12 06:59:00,